sensor_id;sensor_type;location;lat;lon;timestamp;P1;durP1;ratioP1;P2;durP2;ratioP2
16890;SDS011;8562;52.246;20.966;2022-12-07T00:01:21;11.83;;;7.93;;
16890;SDS011;8562;52.246;20.966;2022-12-07T00:03:48;12.93;;;6.83;;
16890;SDS011;8562;52.246;20.966;2022-12-07T00:06:15;9.50;;;8.03;;
16890;SDS011;8562;52.246;20.966;2022-12-07T00:08:41;9.97;;;6.07;;
16890;SDS011;8562;52.246;20.966;2022-12-07T00:11:12;10.43;;;6.60;;
16890;SDS011;8562;52.246;20.966;2022-12-07T00:13:38;19.83;;;8.17;;
16890;SDS011;8562;52.246;20.966;2022-12-07T00:16:06;10.87;;;7.50;;
16890;SDS011;8562;52.246;20.966;2022-12-07T00:18:32;13.43;;;7.43;;
16890;SDS011;8562;52.246;20.966;2022-12-07T00:21:02;14.93;;;8.03;;
16890;SDS011;8562;52.246;20.966;2022-12-07T00:23:29;14.10;;;7.43;;
16890;SDS011;8562;52.246;20.966;2022-12-07T00:25:55;14.80;;;8.43;;
16890;SDS011;8562;52.246;20.966;2022-12-07T00:28:21;16.63;;;7.47;;
16890;SDS011;8562;52.246;20.966;2022-12-07T00:30:47;12.60;;;8.70;;
16890;SDS011;8562;52.246;20.966;2022-12-07T00:33:13;13.20;;;8.73;;
16890;SDS011;8562;52.246;20.966;2022-12-07T00:35:39;12.43;;;7.70;;
16890;SDS011;8562;52.246;20.966;2022-12-07T00:38:05;13.27;;;8.40;;
16890;SDS011;8562;52.246;20.966;2022-12-07T00:40:32;10.03;;;7.33;;
16890;SDS011;8562;52.246;20.966;2022-12-07T00:42:58;13.20;;;8.37;;
16890;SDS011;8562;52.246;20.966;2022-12-07T00:45:25;14.63;;;9.43;;
16890;SDS011;8562;52.246;20.966;2022-12-07T00:47:51;18.03;;;9.53;;
16890;SDS011;8562;52.246;20.966;2022-12-07T00:50:17;15.93;;;10.00;;
16890;SDS011;8562;52.246;20.966;2022-12-07T00:52:43;16.47;;;9.80;;
16890;SDS011;8562;52.246;20.966;2022-12-07T00:55:09;17.37;;;9.10;;
16890;SDS011;8562;52.246;20.966;2022-12-07T00:57:36;19.27;;;11.57;;
16890;SDS011;8562;52.246;20.966;2022-12-07T01:00:03;18.07;;;10.53;;
16890;SDS011;8562;52.246;20.966;2022-12-07T01:02:31;15.53;;;9.73;;
16890;SDS011;8562;52.246;20.966;2022-12-07T01:04:59;22.30;;;13.57;;
16890;SDS011;8562;52.246;20.966;2022-12-07T01:07:25;17.87;;;11.10;;
16890;SDS011;8562;52.246;20.966;2022-12-07T01:09:51;22.40;;;11.90;;
16890;SDS011;8562;52.246;20.966;2022-12-07T01:12:17;16.80;;;10.80;;
16890;SDS011;8562;52.246;20.966;2022-12-07T01:14:43;13.03;;;9.93;;
16890;SDS011;8562;52.246;20.966;2022-12-07T01:17:09;20.20;;;11.47;;
16890;SDS011;8562;52.246;20.966;2022-12-07T01:19:35;19.57;;;11.30;;
16890;SDS011;8562;52.246;20.966;2022-12-07T01:22:01;24.57;;;11.20;;
16890;SDS011;8562;52.246;20.966;2022-12-07T01:24:28;21.73;;;13.10;;
16890;SDS011;8562;52.246;20.966;2022-12-07T01:26:54;15.13;;;11.70;;
16890;SDS011;8562;52.246;20.966;2022-12-07T01:29:20;18.63;;;10.87;;
16890;SDS011;8562;52.246;20.966;2022-12-07T01:31:48;21.43;;;12.13;;
16890;SDS011;8562;52.246;20.966;2022-12-07T01:34:14;16.83;;;11.80;;
16890;SDS011;8562;52.246;20.966;2022-12-07T01:36:40;22.90;;;12.57;;
16890;SDS011;8562;52.246;20.966;2022-12-07T01:39:06;21.87;;;11.73;;
16890;SDS011;8562;52.246;20.966;2022-12-07T01:41:34;18.77;;;11.63;;
16890;SDS011;8562;52.246;20.966;2022-12-07T01:49:10;21.17;;;12.17;;
16890;SDS011;8562;52.246;20.966;2022-12-07T01:51:38;19.27;;;10.77;;
16890;SDS011;8562;52.246;20.966;2022-12-07T01:54:06;17.27;;;9.93;;
16890;SDS011;8562;52.246;20.966;2022-12-07T01:56:33;17.10;;;10.47;;
16890;SDS011;8562;52.246;20.966;2022-12-07T01:58:59;27.17;;;10.53;;
16890;SDS011;8562;52.246;20.966;2022-12-07T02:01:26;16.27;;;9.20;;
16890;SDS011;8562;52.246;20.966;2022-12-07T02:03:52;16.30;;;9.40;;
16890;SDS011;8562;52.246;20.966;2022-12-07T02:06:20;13.80;;;9.40;;
16890;SDS011;8562;52.246;20.966;2022-12-07T02:08:48;15.63;;;8.77;;
16890;SDS011;8562;52.246;20.966;2022-12-07T02:11:14;19.50;;;9.53;;
16890;SDS011;8562;52.246;20.966;2022-12-07T02:13:41;15.87;;;8.63;;
16890;SDS011;8562;52.246;20.966;2022-12-07T02:21:37;12.33;;;7.17;;
16890;SDS011;8562;52.246;20.966;2022-12-07T02:24:22;14.67;;;6.33;;
16890;SDS011;8562;52.246;20.966;2022-12-07T02:26:55;14.83;;;6.37;;
16890;SDS011;8562;52.246;20.966;2022-12-07T02:29:27;10.47;;;6.27;;
16890;SDS011;8562;52.246;20.966;2022-12-07T02:32:06;8.83;;;6.03;;
16890;SDS011;8562;52.246;20.966;2022-12-07T02:34:44;6.80;;;5.37;;
16890;SDS011;8562;52.246;20.966;2022-12-07T02:40:10;8.10;;;4.80;;
16890;SDS011;8562;52.246;20.966;2022-12-07T02:42:40;10.13;;;5.00;;
16890;SDS011;8562;52.246;20.966;2022-12-07T02:45:07;7.47;;;5.57;;
16890;SDS011;8562;52.246;20.966;2022-12-07T02:47:34;6.37;;;4.27;;
16890;SDS011;8562;52.246;20.966;2022-12-07T02:50:05;6.93;;;4.57;;
16890;SDS011;8562;52.246;20.966;2022-12-07T02:52:32;4.90;;;3.37;;
16890;SDS011;8562;52.246;20.966;2022-12-07T02:54:58;6.27;;;4.20;;
16890;SDS011;8562;52.246;20.966;2022-12-07T03:00:11;7.00;;;5.33;;
16890;SDS011;8562;52.246;20.966;2022-12-07T03:02:42;5.33;;;4.00;;
16890;SDS011;8562;52.246;20.966;2022-12-07T03:13:16;4.07;;;3.43;;
16890;SDS011;8562;52.246;20.966;2022-12-07T03:18:11;6.13;;;4.77;;
16890;SDS011;8562;52.246;20.966;2022-12-07T03:20:39;5.97;;;4.30;;
16890;SDS011;8562;52.246;20.966;2022-12-07T03:23:06;7.40;;;4.63;;
16890;SDS011;8562;52.246;20.966;2022-12-07T03:25:35;6.87;;;4.57;;
16890;SDS011;8562;52.246;20.966;2022-12-07T03:28:05;7.97;;;4.53;;
16890;SDS011;8562;52.246;20.966;2022-12-07T03:30:37;5.00;;;4.13;;
16890;SDS011;8562;52.246;20.966;2022-12-07T03:33:10;7.97;;;4.77;;
16890;SDS011;8562;52.246;20.966;2022-12-07T03:35:41;5.93;;;4.00;;
16890;SDS011;8562;52.246;20.966;2022-12-07T03:38:23;7.20;;;5.03;;
16890;SDS011;8562;52.246;20.966;2022-12-07T03:41:11;5.43;;;3.63;;
16890;SDS011;8562;52.246;20.966;2022-12-07T03:43:38;6.23;;;3.90;;
16890;SDS011;8562;52.246;20.966;2022-12-07T03:51:46;6.80;;;3.93;;
16890;SDS011;8562;52.246;20.966;2022-12-07T03:54:17;6.70;;;4.13;;
16890;SDS011;8562;52.246;20.966;2022-12-07T03:56:45;5.13;;;3.47;;
16890;SDS011;8562;52.246;20.966;2022-12-07T03:59:12;3.87;;;2.90;;
16890;SDS011;8562;52.246;20.966;2022-12-07T04:01:40;4.70;;;3.70;;
16890;SDS011;8562;52.246;20.966;2022-12-07T04:04:07;5.00;;;2.87;;
16890;SDS011;8562;52.246;20.966;2022-12-07T04:06:33;5.90;;;3.47;;
16890;SDS011;8562;52.246;20.966;2022-12-07T04:08:59;5.63;;;3.20;;
16890;SDS011;8562;52.246;20.966;2022-12-07T04:11:25;6.63;;;3.10;;
16890;SDS011;8562;52.246;20.966;2022-12-07T04:13:51;3.37;;;2.77;;
16890;SDS011;8562;52.246;20.966;2022-12-07T04:16:36;4.13;;;2.93;;
16890;SDS011;8562;52.246;20.966;2022-12-07T04:19:02;3.73;;;2.93;;
16890;SDS011;8562;52.246;20.966;2022-12-07T04:21:28;3.30;;;2.80;;
16890;SDS011;8562;52.246;20.966;2022-12-07T04:23:54;2.87;;;2.17;;
16890;SDS011;8562;52.246;20.966;2022-12-07T04:26:20;3.90;;;3.20;;
16890;SDS011;8562;52.246;20.966;2022-12-07T04:28:46;3.37;;;3.07;;
16890;SDS011;8562;52.246;20.966;2022-12-07T04:31:12;5.10;;;2.93;;
16890;SDS011;8562;52.246;20.966;2022-12-07T04:33:38;4.00;;;3.30;;
16890;SDS011;8562;52.246;20.966;2022-12-07T04:36:05;3.37;;;3.00;;
16890;SDS011;8562;52.246;20.966;2022-12-07T04:38:31;3.40;;;2.97;;
16890;SDS011;8562;52.246;20.966;2022-12-07T04:40:57;5.20;;;3.60;;
16890;SDS011;8562;52.246;20.966;2022-12-07T04:43:23;4.90;;;3.30;;
16890;SDS011;8562;52.246;20.966;2022-12-07T04:45:49;4.03;;;3.50;;
16890;SDS011;8562;52.246;20.966;2022-12-07T04:48:16;4.70;;;3.33;;
16890;SDS011;8562;52.246;20.966;2022-12-07T04:50:42;3.33;;;3.00;;
16890;SDS011;8562;52.246;20.966;2022-12-07T04:53:08;5.00;;;3.07;;
16890;SDS011;8562;52.246;20.966;2022-12-07T04:55:34;5.90;;;3.07;;
16890;SDS011;8562;52.246;20.966;2022-12-07T04:58:00;5.30;;;3.47;;
16890;SDS011;8562;52.246;20.966;2022-12-07T05:00:26;4.47;;;2.60;;
16890;SDS011;8562;52.246;20.966;2022-12-07T05:02:52;4.17;;;3.30;;
16890;SDS011;8562;52.246;20.966;2022-12-07T05:05:18;4.43;;;2.63;;
16890;SDS011;8562;52.246;20.966;2022-12-07T05:07:44;3.17;;;2.87;;
16890;SDS011;8562;52.246;20.966;2022-12-07T05:10:11;3.53;;;2.70;;
16890;SDS011;8562;52.246;20.966;2022-12-07T05:12:37;4.00;;;2.97;;
16890;SDS011;8562;52.246;20.966;2022-12-07T05:15:03;5.20;;;3.10;;
16890;SDS011;8562;52.246;20.966;2022-12-07T05:17:29;4.43;;;3.30;;
16890;SDS011;8562;52.246;20.966;2022-12-07T05:19:55;5.40;;;3.50;;
16890;SDS011;8562;52.246;20.966;2022-12-07T05:22:22;4.67;;;3.17;;
16890;SDS011;8562;52.246;20.966;2022-12-07T05:24:50;2.80;;;2.13;;
16890;SDS011;8562;52.246;20.966;2022-12-07T05:27:16;4.77;;;2.33;;
16890;SDS011;8562;52.246;20.966;2022-12-07T05:29:43;3.97;;;2.83;;
16890;SDS011;8562;52.246;20.966;2022-12-07T05:32:09;3.07;;;2.87;;
16890;SDS011;8562;52.246;20.966;2022-12-07T05:34:35;3.07;;;2.70;;
16890;SDS011;8562;52.246;20.966;2022-12-07T05:37:01;4.67;;;2.77;;
16890;SDS011;8562;52.246;20.966;2022-12-07T05:39:27;8.77;;;3.73;;
16890;SDS011;8562;52.246;20.966;2022-12-07T05:41:53;2.57;;;2.10;;
16890;SDS011;8562;52.246;20.966;2022-12-07T05:44:41;3.63;;;2.23;;
16890;SDS011;8562;52.246;20.966;2022-12-07T05:47:08;2.77;;;2.53;;
16890;SDS011;8562;52.246;20.966;2022-12-07T05:49:34;3.93;;;3.23;;
16890;SDS011;8562;52.246;20.966;2022-12-07T05:52:00;4.40;;;3.10;;
16890;SDS011;8562;52.246;20.966;2022-12-07T05:54:26;3.83;;;3.03;;
16890;SDS011;8562;52.246;20.966;2022-12-07T05:56:53;4.53;;;3.30;;
16890;SDS011;8562;52.246;20.966;2022-12-07T05:59:19;3.53;;;3.27;;
16890;SDS011;8562;52.246;20.966;2022-12-07T06:01:48;4.83;;;2.83;;
16890;SDS011;8562;52.246;20.966;2022-12-07T06:04:15;3.00;;;2.80;;
16890;SDS011;8562;52.246;20.966;2022-12-07T06:06:41;3.70;;;2.83;;
16890;SDS011;8562;52.246;20.966;2022-12-07T06:09:07;5.33;;;3.77;;
16890;SDS011;8562;52.246;20.966;2022-12-07T06:11:34;2.87;;;2.63;;
16890;SDS011;8562;52.246;20.966;2022-12-07T06:14:18;4.93;;;3.00;;
16890;SDS011;8562;52.246;20.966;2022-12-07T06:16:45;4.23;;;3.23;;
16890;SDS011;8562;52.246;20.966;2022-12-07T06:19:11;4.30;;;2.90;;
16890;SDS011;8562;52.246;20.966;2022-12-07T06:21:37;4.67;;;3.33;;
16890;SDS011;8562;52.246;20.966;2022-12-07T06:24:03;4.67;;;2.40;;
16890;SDS011;8562;52.246;20.966;2022-12-07T06:26:29;2.93;;;2.20;;
16890;SDS011;8562;52.246;20.966;2022-12-07T06:28:55;3.17;;;2.00;;
16890;SDS011;8562;52.246;20.966;2022-12-07T06:31:22;5.00;;;3.20;;
16890;SDS011;8562;52.246;20.966;2022-12-07T06:33:48;3.73;;;2.33;;
16890;SDS011;8562;52.246;20.966;2022-12-07T06:36:14;4.50;;;2.80;;
16890;SDS011;8562;52.246;20.966;2022-12-07T06:38:40;4.93;;;3.03;;
16890;SDS011;8562;52.246;20.966;2022-12-07T06:41:06;3.70;;;3.10;;
16890;SDS011;8562;52.246;20.966;2022-12-07T06:43:32;3.93;;;2.53;;
16890;SDS011;8562;52.246;20.966;2022-12-07T06:45:59;2.50;;;2.03;;
16890;SDS011;8562;52.246;20.966;2022-12-07T06:48:25;3.00;;;2.37;;
16890;SDS011;8562;52.246;20.966;2022-12-07T06:50:51;3.20;;;2.17;;
16890;SDS011;8562;52.246;20.966;2022-12-07T06:53:17;3.13;;;2.27;;
16890;SDS011;8562;52.246;20.966;2022-12-07T06:55:43;3.10;;;2.40;;
16890;SDS011;8562;52.246;20.966;2022-12-07T06:58:09;2.63;;;2.40;;
16890;SDS011;8562;52.246;20.966;2022-12-07T07:00:35;2.93;;;2.20;;
16890;SDS011;8562;52.246;20.966;2022-12-07T07:03:01;3.90;;;3.60;;
16890;SDS011;8562;52.246;20.966;2022-12-07T07:05:27;4.40;;;3.27;;
16890;SDS011;8562;52.246;20.966;2022-12-07T07:07:54;3.73;;;3.17;;
16890;SDS011;8562;52.246;20.966;2022-12-07T07:10:20;3.53;;;2.80;;
16890;SDS011;8562;52.246;20.966;2022-12-07T07:12:46;3.27;;;2.03;;
16890;SDS011;8562;52.246;20.966;2022-12-07T07:15:12;5.47;;;3.73;;
16890;SDS011;8562;52.246;20.966;2022-12-07T07:17:38;3.67;;;2.83;;
16890;SDS011;8562;52.246;20.966;2022-12-07T07:20:04;3.10;;;2.27;;
16890;SDS011;8562;52.246;20.966;2022-12-07T07:22:31;5.23;;;3.20;;
16890;SDS011;8562;52.246;20.966;2022-12-07T07:24:57;3.83;;;2.73;;
16890;SDS011;8562;52.246;20.966;2022-12-07T07:27:23;3.40;;;2.13;;
16890;SDS011;8562;52.246;20.966;2022-12-07T07:29:49;2.93;;;2.27;;
16890;SDS011;8562;52.246;20.966;2022-12-07T07:32:15;3.53;;;2.83;;
16890;SDS011;8562;52.246;20.966;2022-12-07T07:34:41;3.07;;;2.70;;
16890;SDS011;8562;52.246;20.966;2022-12-07T07:37:07;3.63;;;2.70;;
16890;SDS011;8562;52.246;20.966;2022-12-07T07:39:36;3.67;;;2.57;;
16890;SDS011;8562;52.246;20.966;2022-12-07T07:42:02;3.27;;;2.10;;
16890;SDS011;8562;52.246;20.966;2022-12-07T07:44:31;3.20;;;2.70;;
16890;SDS011;8562;52.246;20.966;2022-12-07T07:46:57;5.03;;;3.13;;
16890;SDS011;8562;52.246;20.966;2022-12-07T07:49:23;2.73;;;2.53;;
16890;SDS011;8562;52.246;20.966;2022-12-07T07:51:49;3.70;;;2.40;;
16890;SDS011;8562;52.246;20.966;2022-12-07T07:54:16;6.17;;;3.67;;
16890;SDS011;8562;52.246;20.966;2022-12-07T07:56:42;3.93;;;2.40;;
16890;SDS011;8562;52.246;20.966;2022-12-07T07:59:08;6.40;;;3.20;;
16890;SDS011;8562;52.246;20.966;2022-12-07T08:01:34;4.90;;;3.40;;
16890;SDS011;8562;52.246;20.966;2022-12-07T08:04:00;5.53;;;2.80;;
16890;SDS011;8562;52.246;20.966;2022-12-07T08:06:26;3.33;;;3.07;;
16890;SDS011;8562;52.246;20.966;2022-12-07T08:08:52;3.50;;;3.20;;
16890;SDS011;8562;52.246;20.966;2022-12-07T08:11:18;4.83;;;2.73;;
16890;SDS011;8562;52.246;20.966;2022-12-07T08:13:45;3.80;;;3.03;;
16890;SDS011;8562;52.246;20.966;2022-12-07T08:16:12;4.43;;;4.03;;
16890;SDS011;8562;52.246;20.966;2022-12-07T08:18:40;5.80;;;3.37;;
16890;SDS011;8562;52.246;20.966;2022-12-07T08:21:07;4.30;;;2.90;;
16890;SDS011;8562;52.246;20.966;2022-12-07T08:23:33;4.57;;;3.97;;
16890;SDS011;8562;52.246;20.966;2022-12-07T08:26:00;10.10;;;3.40;;
16890;SDS011;8562;52.246;20.966;2022-12-07T08:28:27;9.70;;;3.60;;
16890;SDS011;8562;52.246;20.966;2022-12-07T08:30:58;9.17;;;4.30;;
16890;SDS011;8562;52.246;20.966;2022-12-07T08:33:24;6.47;;;4.83;;
16890;SDS011;8562;52.246;20.966;2022-12-07T08:35:51;6.40;;;3.53;;
16890;SDS011;8562;52.246;20.966;2022-12-07T08:38:17;4.27;;;3.97;;
16890;SDS011;8562;52.246;20.966;2022-12-07T08:40:43;5.90;;;3.53;;
16890;SDS011;8562;52.246;20.966;2022-12-07T08:43:09;6.37;;;3.63;;
16890;SDS011;8562;52.246;20.966;2022-12-07T08:45:35;9.03;;;4.30;;
16890;SDS011;8562;52.246;20.966;2022-12-07T08:48:02;6.57;;;4.67;;
16890;SDS011;8562;52.246;20.966;2022-12-07T08:50:30;11.17;;;6.00;;
16890;SDS011;8562;52.246;20.966;2022-12-07T08:52:57;7.47;;;4.50;;
16890;SDS011;8562;52.246;20.966;2022-12-07T08:55:24;6.13;;;4.27;;
16890;SDS011;8562;52.246;20.966;2022-12-07T08:57:50;5.43;;;4.20;;
16890;SDS011;8562;52.246;20.966;2022-12-07T09:00:17;8.47;;;5.27;;
16890;SDS011;8562;52.246;20.966;2022-12-07T09:02:43;8.13;;;5.57;;
16890;SDS011;8562;52.246;20.966;2022-12-07T09:05:10;9.13;;;5.70;;
16890;SDS011;8562;52.246;20.966;2022-12-07T09:07:36;8.97;;;4.53;;
16890;SDS011;8562;52.246;20.966;2022-12-07T09:10:03;9.13;;;5.80;;
16890;SDS011;8562;52.246;20.966;2022-12-07T09:12:29;9.73;;;5.23;;
16890;SDS011;8562;52.246;20.966;2022-12-07T09:14:56;10.83;;;6.07;;
16890;SDS011;8562;52.246;20.966;2022-12-07T09:17:22;10.17;;;6.17;;
16890;SDS011;8562;52.246;20.966;2022-12-07T09:19:48;6.60;;;4.73;;
16890;SDS011;8562;52.246;20.966;2022-12-07T09:22:14;12.40;;;5.73;;
16890;SDS011;8562;52.246;20.966;2022-12-07T09:24:40;8.87;;;4.97;;
16890;SDS011;8562;52.246;20.966;2022-12-07T09:27:06;8.83;;;6.80;;
16890;SDS011;8562;52.246;20.966;2022-12-07T09:29:32;11.83;;;6.73;;
16890;SDS011;8562;52.246;20.966;2022-12-07T09:31:59;5.67;;;4.17;;
16890;SDS011;8562;52.246;20.966;2022-12-07T09:34:25;9.97;;;5.50;;
16890;SDS011;8562;52.246;20.966;2022-12-07T09:36:51;7.80;;;4.17;;
16890;SDS011;8562;52.246;20.966;2022-12-07T09:39:17;10.40;;;5.43;;
16890;SDS011;8562;52.246;20.966;2022-12-07T09:41:44;12.40;;;5.60;;
16890;SDS011;8562;52.246;20.966;2022-12-07T09:44:14;8.03;;;4.63;;
16890;SDS011;8562;52.246;20.966;2022-12-07T09:46:43;11.77;;;6.23;;
16890;SDS011;8562;52.246;20.966;2022-12-07T09:49:14;9.67;;;5.33;;
16890;SDS011;8562;52.246;20.966;2022-12-07T09:51:42;6.13;;;4.37;;
16890;SDS011;8562;52.246;20.966;2022-12-07T09:54:08;10.17;;;5.77;;
16890;SDS011;8562;52.246;20.966;2022-12-07T09:56:37;6.53;;;4.57;;
16890;SDS011;8562;52.246;20.966;2022-12-07T09:59:03;8.67;;;4.60;;
16890;SDS011;8562;52.246;20.966;2022-12-07T10:01:30;8.77;;;5.63;;
16890;SDS011;8562;52.246;20.966;2022-12-07T10:04:16;11.53;;;5.07;;
16890;SDS011;8562;52.246;20.966;2022-12-07T10:06:43;9.83;;;5.37;;
16890;SDS011;8562;52.246;20.966;2022-12-07T10:09:10;8.43;;;4.30;;
16890;SDS011;8562;52.246;20.966;2022-12-07T10:11:57;9.40;;;5.00;;
16890;SDS011;8562;52.246;20.966;2022-12-07T10:14:22;6.37;;;4.57;;
16890;SDS011;8562;52.246;20.966;2022-12-07T10:16:48;7.67;;;4.77;;
16890;SDS011;8562;52.246;20.966;2022-12-07T10:21:58;7.00;;;4.63;;
16890;SDS011;8562;52.246;20.966;2022-12-07T10:24:24;10.03;;;5.30;;
16890;SDS011;8562;52.246;20.966;2022-12-07T10:26:51;7.53;;;4.87;;
16890;SDS011;8562;52.246;20.966;2022-12-07T10:29:19;9.47;;;5.83;;
16890;SDS011;8562;52.246;20.966;2022-12-07T10:31:46;11.93;;;5.17;;
16890;SDS011;8562;52.246;20.966;2022-12-07T10:34:27;10.10;;;5.07;;
16890;SDS011;8562;52.246;20.966;2022-12-07T10:37:06;11.27;;;5.40;;
16890;SDS011;8562;52.246;20.966;2022-12-07T10:39:40;7.10;;;5.00;;
16890;SDS011;8562;52.246;20.966;2022-12-07T10:42:09;9.63;;;5.17;;
16890;SDS011;8562;52.246;20.966;2022-12-07T10:44:41;7.73;;;4.40;;
16890;SDS011;8562;52.246;20.966;2022-12-07T11:00:31;9.47;;;5.50;;
16890;SDS011;8562;52.246;20.966;2022-12-07T11:13:32;10.83;;;5.27;;
16890;SDS011;8562;52.246;20.966;2022-12-07T11:18:36;11.07;;;5.23;;
16890;SDS011;8562;52.246;20.966;2022-12-07T11:28:48;9.10;;;5.20;;
16890;SDS011;8562;52.246;20.966;2022-12-07T11:31:25;7.43;;;5.30;;
16890;SDS011;8562;52.246;20.966;2022-12-07T11:34:10;7.60;;;4.83;;
16890;SDS011;8562;52.246;20.966;2022-12-07T11:36:44;5.87;;;4.77;;
16890;SDS011;8562;52.246;20.966;2022-12-07T11:39:16;7.87;;;4.97;;
16890;SDS011;8562;52.246;20.966;2022-12-07T11:41:51;7.10;;;4.93;;
16890;SDS011;8562;52.246;20.966;2022-12-07T11:47:01;10.23;;;5.63;;
16890;SDS011;8562;52.246;20.966;2022-12-07T11:49:45;8.63;;;5.27;;
16890;SDS011;8562;52.246;20.966;2022-12-07T11:54:58;8.00;;;4.97;;
16890;SDS011;8562;52.246;20.966;2022-12-07T11:57:44;10.47;;;5.67;;
16890;SDS011;8562;52.246;20.966;2022-12-07T12:00:13;8.00;;;5.10;;
16890;SDS011;8562;52.246;20.966;2022-12-07T12:02:46;8.07;;;4.90;;
16890;SDS011;8562;52.246;20.966;2022-12-07T12:07:40;7.03;;;4.33;;
16890;SDS011;8562;52.246;20.966;2022-12-07T12:21:04;7.60;;;4.50;;
16890;SDS011;8562;52.246;20.966;2022-12-07T12:25:59;7.47;;;5.07;;
16890;SDS011;8562;52.246;20.966;2022-12-07T12:33:46;6.43;;;4.53;;
16890;SDS011;8562;52.246;20.966;2022-12-07T12:42:12;6.63;;;4.80;;
16890;SDS011;8562;52.246;20.966;2022-12-07T12:51:49;6.50;;;4.90;;
16890;SDS011;8562;52.246;20.966;2022-12-07T13:02:05;10.23;;;6.00;;
16890;SDS011;8562;52.246;20.966;2022-12-07T13:04:38;8.90;;;4.97;;
16890;SDS011;8562;52.246;20.966;2022-12-07T13:07:08;8.07;;;5.03;;
16890;SDS011;8562;52.246;20.966;2022-12-07T13:09:36;5.13;;;3.47;;
16890;SDS011;8562;52.246;20.966;2022-12-07T13:12:11;6.73;;;3.90;;
16890;SDS011;8562;52.246;20.966;2022-12-07T13:17:07;10.10;;;4.37;;
16890;SDS011;8562;52.246;20.966;2022-12-07T13:19:52;4.83;;;3.00;;
16890;SDS011;8562;52.246;20.966;2022-12-07T13:24:55;4.70;;;3.03;;
16890;SDS011;8562;52.246;20.966;2022-12-07T13:27:21;5.50;;;3.43;;
16890;SDS011;8562;52.246;20.966;2022-12-07T13:29:47;5.13;;;3.53;;
16890;SDS011;8562;52.246;20.966;2022-12-07T13:32:27;7.97;;;5.17;;
16890;SDS011;8562;52.246;20.966;2022-12-07T13:34:53;5.80;;;3.90;;
16890;SDS011;8562;52.246;20.966;2022-12-07T13:39:49;5.63;;;4.03;;
16890;SDS011;8562;52.246;20.966;2022-12-07T13:42:25;5.37;;;3.70;;
16890;SDS011;8562;52.246;20.966;2022-12-07T13:44:52;6.20;;;3.50;;
16890;SDS011;8562;52.246;20.966;2022-12-07T13:49:48;5.73;;;4.10;;
16890;SDS011;8562;52.246;20.966;2022-12-07T13:52:17;5.60;;;4.07;;
16890;SDS011;8562;52.246;20.966;2022-12-07T13:54:48;5.87;;;4.23;;
16890;SDS011;8562;52.246;20.966;2022-12-07T13:57:15;6.37;;;4.20;;
16890;SDS011;8562;52.246;20.966;2022-12-07T13:59:41;5.57;;;4.17;;
16890;SDS011;8562;52.246;20.966;2022-12-07T14:05:10;6.27;;;4.47;;
16890;SDS011;8562;52.246;20.966;2022-12-07T14:10:24;8.27;;;5.33;;
16890;SDS011;8562;52.246;20.966;2022-12-07T14:12:51;6.47;;;4.87;;
16890;SDS011;8562;52.246;20.966;2022-12-07T14:15:21;9.20;;;4.90;;
16890;SDS011;8562;52.246;20.966;2022-12-07T14:17:51;8.17;;;5.30;;
16890;SDS011;8562;52.246;20.966;2022-12-07T14:22:56;8.97;;;5.73;;
16890;SDS011;8562;52.246;20.966;2022-12-07T14:25:23;10.70;;;6.30;;
16890;SDS011;8562;52.246;20.966;2022-12-07T14:27:54;9.30;;;5.20;;
16890;SDS011;8562;52.246;20.966;2022-12-07T14:30:22;9.80;;;5.57;;
16890;SDS011;8562;52.246;20.966;2022-12-07T14:32:57;9.53;;;5.90;;
16890;SDS011;8562;52.246;20.966;2022-12-07T14:35:23;9.47;;;6.30;;
16890;SDS011;8562;52.246;20.966;2022-12-07T14:37:49;8.37;;;6.20;;
16890;SDS011;8562;52.246;20.966;2022-12-07T14:40:17;11.20;;;6.60;;
16890;SDS011;8562;52.246;20.966;2022-12-07T14:42:44;11.40;;;6.77;;
16890;SDS011;8562;52.246;20.966;2022-12-07T14:45:15;9.20;;;6.43;;
16890;SDS011;8562;52.246;20.966;2022-12-07T14:47:42;15.97;;;6.93;;
16890;SDS011;8562;52.246;20.966;2022-12-07T14:50:11;8.13;;;6.10;;
16890;SDS011;8562;52.246;20.966;2022-12-07T14:52:37;11.50;;;7.17;;
16890;SDS011;8562;52.246;20.966;2022-12-07T14:55:04;7.50;;;5.50;;
16890;SDS011;8562;52.246;20.966;2022-12-07T14:57:30;8.53;;;6.23;;
16890;SDS011;8562;52.246;20.966;2022-12-07T14:59:56;8.50;;;6.67;;
16890;SDS011;8562;52.246;20.966;2022-12-07T15:02:22;10.07;;;7.17;;
16890;SDS011;8562;52.246;20.966;2022-12-07T15:04:48;7.20;;;5.97;;
16890;SDS011;8562;52.246;20.966;2022-12-07T15:07:18;9.20;;;6.13;;
16890;SDS011;8562;52.246;20.966;2022-12-07T15:09:45;10.73;;;6.40;;
16890;SDS011;8562;52.246;20.966;2022-12-07T15:12:11;10.57;;;6.20;;
16890;SDS011;8562;52.246;20.966;2022-12-07T15:14:37;9.37;;;7.43;;
16890;SDS011;8562;52.246;20.966;2022-12-07T15:17:03;9.53;;;6.03;;
16890;SDS011;8562;52.246;20.966;2022-12-07T15:19:30;8.90;;;5.53;;
16890;SDS011;8562;52.246;20.966;2022-12-07T15:21:56;8.03;;;5.77;;
16890;SDS011;8562;52.246;20.966;2022-12-07T15:24:23;11.10;;;6.57;;
16890;SDS011;8562;52.246;20.966;2022-12-07T15:26:49;8.43;;;4.87;;
16890;SDS011;8562;52.246;20.966;2022-12-07T15:29:15;8.63;;;5.50;;
16890;SDS011;8562;52.246;20.966;2022-12-07T15:31:42;7.97;;;5.60;;
16890;SDS011;8562;52.246;20.966;2022-12-07T15:34:08;5.60;;;4.83;;
16890;SDS011;8562;52.246;20.966;2022-12-07T15:36:34;9.10;;;5.97;;
16890;SDS011;8562;52.246;20.966;2022-12-07T15:39:01;9.40;;;4.47;;
16890;SDS011;8562;52.246;20.966;2022-12-07T15:41:27;9.33;;;6.40;;
16890;SDS011;8562;52.246;20.966;2022-12-07T15:43:53;8.53;;;5.00;;
16890;SDS011;8562;52.246;20.966;2022-12-07T15:46:39;8.07;;;5.23;;
16890;SDS011;8562;52.246;20.966;2022-12-07T15:49:07;6.43;;;5.23;;
16890;SDS011;8562;52.246;20.966;2022-12-07T15:51:34;6.40;;;5.53;;
16890;SDS011;8562;52.246;20.966;2022-12-07T15:54:00;6.73;;;5.47;;
16890;SDS011;8562;52.246;20.966;2022-12-07T15:56:26;12.10;;;4.53;;
16890;SDS011;8562;52.246;20.966;2022-12-07T15:58:53;6.83;;;5.17;;
16890;SDS011;8562;52.246;20.966;2022-12-07T16:01:19;7.10;;;4.83;;
16890;SDS011;8562;52.246;20.966;2022-12-07T16:03:45;7.83;;;5.43;;
16890;SDS011;8562;52.246;20.966;2022-12-07T16:06:14;9.67;;;5.87;;
16890;SDS011;8562;52.246;20.966;2022-12-07T16:08:44;7.87;;;4.77;;
16890;SDS011;8562;52.246;20.966;2022-12-07T16:11:11;9.33;;;5.73;;
16890;SDS011;8562;52.246;20.966;2022-12-07T16:13:37;8.17;;;5.03;;
16890;SDS011;8562;52.246;20.966;2022-12-07T16:16:05;8.60;;;5.57;;
16890;SDS011;8562;52.246;20.966;2022-12-07T16:18:32;7.40;;;6.30;;
16890;SDS011;8562;52.246;20.966;2022-12-07T16:20:58;7.67;;;6.53;;
16890;SDS011;8562;52.246;20.966;2022-12-07T16:23:24;10.07;;;5.87;;
16890;SDS011;8562;52.246;20.966;2022-12-07T16:25:50;8.10;;;5.83;;
16890;SDS011;8562;52.246;20.966;2022-12-07T16:28:16;9.70;;;6.30;;
16890;SDS011;8562;52.246;20.966;2022-12-07T16:30:42;9.90;;;6.67;;
16890;SDS011;8562;52.246;20.966;2022-12-07T16:33:09;8.00;;;5.80;;
16890;SDS011;8562;52.246;20.966;2022-12-07T16:35:38;9.87;;;5.33;;
16890;SDS011;8562;52.246;20.966;2022-12-07T16:38:06;10.33;;;5.87;;
16890;SDS011;8562;52.246;20.966;2022-12-07T16:40:32;7.43;;;5.43;;
16890;SDS011;8562;52.246;20.966;2022-12-07T16:42:58;7.97;;;6.07;;
16890;SDS011;8562;52.246;20.966;2022-12-07T16:45:24;9.17;;;5.43;;
16890;SDS011;8562;52.246;20.966;2022-12-07T16:47:50;8.80;;;6.33;;
16890;SDS011;8562;52.246;20.966;2022-12-07T16:50:16;10.53;;;5.93;;
16890;SDS011;8562;52.246;20.966;2022-12-07T16:52:42;9.97;;;6.47;;
16890;SDS011;8562;52.246;20.966;2022-12-07T16:55:08;9.70;;;6.70;;
16890;SDS011;8562;52.246;20.966;2022-12-07T16:57:35;9.87;;;6.23;;
16890;SDS011;8562;52.246;20.966;2022-12-07T17:00:01;9.93;;;6.60;;
16890;SDS011;8562;52.246;20.966;2022-12-07T17:02:28;8.10;;;5.27;;